createdAt,value
2023-01-23T00:02:11.302Z,100.00
2023-01-23T00:07:13.044Z,100.00
2023-01-23T00:12:14.684Z,100.00
2023-01-23T00:17:16.301Z,100.00
2023-01-23T00:22:18.055Z,100.00
2023-01-23T00:27:19.662Z,100.00
2023-01-23T00:32:21.281Z,100.00
2023-01-23T00:37:22.914Z,100.00
2023-01-23T00:42:24.576Z,100.00
2023-01-23T00:47:26.229Z,100.00
2023-01-23T00:52:28.151Z,100.00
2023-01-23T00:57:30.439Z,100.00
2023-01-23T01:02:32.134Z,100.00
2023-01-23T01:07:33.832Z,100.00
2023-01-23T01:12:35.489Z,100.00
2023-01-23T01:17:38.856Z,100.00
2023-01-23T01:22:40.489Z,100.00
2023-01-23T01:27:42.133Z,100.00
2023-01-23T01:32:44.743Z,100.00
2023-01-23T01:37:49.186Z,100.00
2023-01-23T01:43:02.914Z,100.00
2023-01-23T01:48:05.799Z,100.00
2023-01-23T01:53:07.487Z,100.00
2023-01-23T01:58:09.362Z,100.00
2023-01-23T02:03:11.513Z,100.00
2023-01-23T02:08:35.680Z,100.00
2023-01-23T02:13:39.975Z,100.00
2023-01-23T02:18:47.297Z,100.00
2023-01-23T02:24:08.249Z,100.00
2023-01-23T02:29:11.196Z,100.00
2023-01-23T02:34:22.421Z,100.00
2023-01-23T02:39:25.719Z,100.00
2023-01-23T02:44:33.892Z,100.00
2023-01-23T02:49:39.433Z,100.00
2023-01-23T02:54:42.683Z,100.00
2023-01-23T03:00:03.462Z,100.00
2023-01-23T03:05:08.766Z,100.00
2023-01-23T03:10:11.909Z,100.00
2023-01-23T03:15:17.156Z,100.00
2023-01-23T03:20:20.169Z,100.00
2023-01-23T03:25:22.089Z,100.00
2023-01-23T03:30:25.575Z,100.00
2023-01-23T03:35:28.392Z,100.00
2023-01-23T03:40:49.404Z,100.00
2023-01-23T03:45:54.472Z,100.00
2023-01-23T03:50:56.983Z,100.00
2023-01-23T03:55:59.360Z,100.00
2023-01-23T04:01:03.549Z,100.00
2023-01-23T04:06:08.962Z,100.00
2023-01-23T04:11:12.866Z,100.00
2023-01-23T04:16:16.732Z,100.00
2023-01-23T04:21:18.643Z,100.00
2023-01-23T04:26:20.587Z,100.00
2023-01-23T04:31:22.627Z,100.00
2023-01-23T04:36:25.043Z,100.00
2023-01-23T04:41:30.054Z,100.00
2023-01-23T04:46:39.069Z,100.00
2023-01-23T04:51:48.076Z,100.00
2023-01-23T04:56:51.612Z,100.00
2023-01-23T05:01:55.238Z,100.00
2023-01-23T05:06:57.213Z,100.00
2023-01-23T05:11:58.944Z,100.00
2023-01-23T05:17:02.359Z,100.00
2023-01-23T05:22:08.157Z,100.00
2023-01-23T05:27:10.124Z,100.00
2023-01-23T05:32:15.000Z,100.00
2023-01-23T05:37:25.910Z,100.00
2023-01-23T05:42:31.675Z,100.00
2023-01-23T05:47:52.387Z,100.00
2023-01-23T05:52:54.058Z,100.00
2023-01-23T05:57:56.315Z,100.00
2023-01-23T06:03:00.783Z,100.00
2023-01-23T06:08:21.119Z,100.00
2023-01-23T06:13:25.563Z,100.00
2023-01-23T06:18:27.460Z,100.00
2023-01-23T06:23:29.250Z,100.00
2023-01-23T06:28:33.785Z,100.00
2023-01-23T06:33:38.889Z,100.00
2023-01-23T06:38:44.268Z,100.00
2023-01-23T06:43:48.050Z,100.00
2023-01-23T06:48:55.529Z,100.00
2023-01-23T06:53:58.106Z,100.00
2023-01-23T06:59:00.509Z,100.00
2023-01-23T07:04:11.178Z,100.00
2023-01-23T07:09:14.501Z,100.00
2023-01-23T07:14:20.276Z,100.00
2023-01-23T07:19:26.885Z,100.00
2023-01-23T07:24:31.720Z,100.00
2023-01-23T07:29:33.312Z,100.00
2023-01-23T07:34:35.072Z,100.00
2023-01-23T07:39:36.665Z,100.00
2023-01-23T07:44:38.268Z,100.00
2023-01-23T07:49:39.876Z,100.00
2023-01-23T07:54:41.487Z,100.00
2023-01-23T07:59:43.109Z,100.00
2023-01-23T08:04:44.771Z,100.00
2023-01-23T08:09:46.363Z,100.00
2023-01-23T08:14:48.057Z,100.00
2023-01-23T08:19:49.688Z,100.00
2023-01-23T08:24:51.557Z,100.00
2023-01-23T08:29:53.185Z,100.00
2023-01-23T08:34:55.444Z,100.00
2023-01-23T08:39:57.032Z,100.00
2023-01-23T08:44:58.624Z,100.00
2023-01-23T08:50:00.207Z,100.00
2023-01-23T08:55:01.990Z,100.00
2023-01-23T09:00:04.437Z,100.00
2023-01-23T09:05:06.498Z,100.00
2023-01-23T09:10:08.956Z,100.00
2023-01-23T09:15:11.250Z,100.00
2023-01-23T09:20:12.912Z,100.00
2023-01-23T09:25:14.560Z,100.00
2023-01-23T09:30:16.732Z,100.00
2023-01-23T09:35:18.318Z,100.00
2023-01-23T09:40:23.173Z,100.00
2023-01-23T09:45:27.560Z,100.00
2023-01-23T09:50:33.425Z,100.00
2023-01-23T09:55:52.141Z,100.00
2023-01-23T10:00:54.062Z,100.00
2023-01-23T10:06:12.781Z,100.00
2023-01-23T10:11:51.661Z,100.00
2023-01-23T10:17:12.210Z,100.00
2023-01-23T10:22:33.582Z,100.00
2023-01-23T10:27:43.303Z,100.00
2023-01-23T10:33:02.711Z,100.00
2023-01-23T10:38:23.115Z,100.00
2023-01-23T10:43:26.563Z,100.00
2023-01-23T10:48:32.133Z,100.00
2023-01-23T10:53:33.780Z,100.00
2023-01-23T10:58:41.074Z,100.00
2023-01-23T11:03:45.538Z,100.00
2023-01-23T11:09:01.078Z,100.00
2023-01-23T11:14:05.435Z,100.00
2023-01-23T11:19:10.216Z,100.00
2023-01-23T11:24:41.059Z,100.00
2023-01-23T11:30:17.182Z,100.00
2023-01-23T11:35:25.427Z,100.00
2023-01-23T11:40:27.083Z,100.00
2023-01-23T11:45:55.298Z,100.00
2023-01-23T11:51:25.359Z,100.00
2023-01-23T11:56:43.926Z,100.00
2023-01-23T12:02:22.327Z,99.96
2023-01-23T12:07:25.071Z,98.95
2023-01-23T12:12:45.387Z,99.17
2023-01-23T12:17:52.143Z,100.00
2023-01-23T12:23:16.765Z,99.58
2023-01-23T12:28:24.001Z,97.43
2023-01-23T12:33:45.401Z,96.82
2023-01-23T12:39:07.016Z,97.51
2023-01-23T12:44:15.570Z,98.08
2023-01-23T12:49:29.661Z,99.90
2023-01-23T12:54:55.875Z,99.83
2023-01-23T13:00:07.789Z,99.29
2023-01-23T13:05:21.487Z,100.00
2023-01-23T13:10:52.414Z,100.00
2023-01-23T13:16:10.779Z,100.00
2023-01-23T13:21:31.032Z,100.00
2023-01-23T13:26:32.813Z,100.00
2023-01-23T13:31:50.191Z,100.00
2023-01-23T13:36:54.809Z,100.00
2023-01-23T13:42:14.943Z,100.00
2023-01-23T14:20:54.497Z,100.00
2023-01-23T14:25:57.190Z,100.00
2023-01-23T14:31:02.626Z,100.00
2023-01-23T14:36:04.651Z,100.00
2023-01-23T14:41:07.554Z,100.00
2023-01-23T14:46:22.335Z,100.00
2023-01-23T14:51:26.960Z,100.00
2023-01-23T14:56:39.592Z,100.00
2023-01-23T15:01:41.362Z,100.00
2023-01-23T15:06:43.095Z,100.00
2023-01-23T15:11:45.522Z,100.00
2023-01-23T15:16:47.261Z,100.00
2023-01-23T15:21:48.973Z,100.00
2023-01-23T15:27:06.319Z,100.00
2023-01-23T15:32:19.991Z,100.00
2023-01-23T15:37:27.926Z,100.00
2023-01-23T15:42:32.906Z,100.00
2023-01-23T15:47:34.985Z,100.00
2023-01-23T15:52:48.549Z,100.00
2023-01-23T15:57:52.192Z,100.00
2023-01-23T16:02:57.124Z,100.00
2023-01-23T16:08:02.566Z,100.00
2023-01-23T16:13:05.049Z,100.00
2023-01-23T16:18:07.215Z,100.00
2023-01-23T16:23:18.476Z,100.00
2023-01-23T16:28:22.718Z,100.00
2023-01-23T16:33:24.516Z,100.00
2023-01-23T16:38:28.982Z,100.00
2023-01-23T16:43:30.612Z,100.00
2023-01-23T16:48:32.295Z,100.00
2023-01-23T16:53:44.538Z,100.00
2023-01-23T16:58:46.208Z,100.00
2023-01-23T17:03:55.732Z,100.00
2023-01-23T17:08:57.410Z,100.00
2023-01-23T17:14:02.791Z,100.00
2023-01-23T17:19:10.607Z,100.00
2023-01-23T17:24:17.371Z,100.00
2023-01-23T17:29:20.035Z,100.00
2023-01-23T17:34:29.283Z,100.00
2023-01-23T17:39:30.977Z,100.00
2023-01-23T17:44:32.588Z,100.00
2023-01-23T17:49:34.436Z,100.00
2023-01-23T17:54:37.524Z,100.00
2023-01-23T17:59:39.194Z,100.00
2023-01-23T18:04:40.893Z,100.00
2023-01-23T18:09:42.631Z,100.00
2023-01-23T18:14:56.383Z,100.00
2023-01-23T18:19:58.209Z,100.00
2023-01-23T18:25:00.095Z,100.00
2023-01-23T18:30:31.232Z,100.00
2023-01-23T18:36:15.173Z,100.00
2023-01-23T18:41:22.876Z,100.00
2023-01-23T18:46:25.285Z,100.00
2023-01-23T18:51:26.958Z,100.00
2023-01-23T18:56:47.391Z,100.00
2023-01-23T19:02:11.083Z,100.00
2023-01-23T19:07:21.125Z,100.00
2023-01-23T19:12:49.040Z,100.00
2023-01-23T19:18:16.103Z,100.00
2023-01-23T19:23:26.510Z,100.00
2023-01-23T19:28:28.302Z,100.00
2023-01-23T19:33:29.953Z,100.00
2023-01-23T19:38:31.538Z,100.00
2023-01-23T19:43:33.151Z,100.00
2023-01-23T19:48:34.822Z,100.00
2023-01-23T19:53:36.641Z,100.00
2023-01-23T19:58:38.469Z,100.00
2023-01-23T20:03:41.189Z,100.00
2023-01-23T20:08:43.070Z,100.00
2023-01-23T20:13:44.921Z,100.00
2023-01-23T20:18:48.228Z,100.00
2023-01-23T20:23:50.563Z,100.00
2023-01-23T20:28:53.458Z,100.00
2023-01-23T20:33:55.081Z,100.00
2023-01-23T20:38:56.955Z,100.00
2023-01-23T20:43:58.602Z,100.00
2023-01-23T20:49:01.647Z,100.00
2023-01-23T20:54:03.276Z,100.00
2023-01-23T20:59:21.459Z,100.00
2023-01-23T21:04:25.264Z,100.00
2023-01-23T21:09:27.411Z,100.00
2023-01-23T21:14:29.519Z,100.00
2023-01-23T21:19:32.855Z,100.00
2023-01-23T21:24:36.134Z,100.00
2023-01-23T21:29:38.509Z,100.00
2023-01-23T21:34:40.152Z,100.00
2023-01-23T21:39:41.778Z,100.00
2023-01-23T21:44:43.382Z,100.00
2023-01-23T21:49:44.996Z,100.00
2023-01-23T21:54:46.641Z,100.00
2023-01-23T22:00:08.249Z,100.00
2023-01-23T22:05:15.494Z,100.00
2023-01-23T22:10:17.172Z,100.00
2023-01-23T22:15:19.178Z,100.00
2023-01-23T22:20:21.080Z,100.00
2023-01-23T22:25:23.144Z,100.00
2023-01-23T22:30:24.965Z,100.00
2023-01-23T22:35:26.575Z,100.00
2023-01-23T22:40:28.185Z,100.00
2023-01-23T22:45:29.914Z,100.00
2023-01-23T22:50:31.538Z,100.00
2023-01-23T22:55:33.157Z,100.00
2023-01-23T23:00:34.751Z,100.00
2023-01-23T23:05:36.398Z,100.00
2023-01-23T23:10:37.998Z,100.00
2023-01-23T23:15:39.598Z,100.00
2023-01-23T23:20:41.223Z,100.00
2023-01-23T23:25:42.895Z,100.00
2023-01-23T23:30:44.487Z,100.00
2023-01-23T23:35:46.260Z,100.00
2023-01-23T23:40:58.569Z,100.00
2023-01-23T23:46:02.611Z,100.00
2023-01-23T23:51:07.484Z,100.00
2023-01-23T23:56:16.914Z,100.00
